createdAt,value
2018-02-20T00:02:21.444Z,77.00
2018-02-20T00:04:47.387Z,76.80
2018-02-20T00:07:13.383Z,76.90
2018-02-20T00:09:40.056Z,76.90
2018-02-20T00:12:06.009Z,76.90
2018-02-20T00:14:31.939Z,76.90
2018-02-20T00:16:58.089Z,77.40
2018-02-20T00:19:24.771Z,77.60
2018-02-20T00:21:50.696Z,77.60
2018-02-20T00:24:16.669Z,77.70
2018-02-20T00:26:42.632Z,77.70
2018-02-20T00:29:08.601Z,78.30
2018-02-20T00:31:34.684Z,78.30
2018-02-20T00:34:00.748Z,78.20
2018-02-20T00:36:26.705Z,78.30
2018-02-20T00:38:52.695Z,78.10
2018-02-20T00:41:18.621Z,78.20
2018-02-20T00:43:45.357Z,78.30
2018-02-20T00:46:12.049Z,78.20
2018-02-20T00:48:38.144Z,78.10
2018-02-20T00:51:04.144Z,78.10
2018-02-20T00:53:30.120Z,78.30
2018-02-20T00:55:56.102Z,78.50
2018-02-20T00:58:22.783Z,78.40
2018-02-20T01:00:48.774Z,78.50
2018-02-20T01:03:14.715Z,78.30
2018-02-20T01:05:40.788Z,78.30
2018-02-20T01:08:06.724Z,78.00
2018-02-20T01:10:33.436Z,78.00
2018-02-20T01:12:59.383Z,78.00
2018-02-20T01:15:26.085Z,78.20
2018-02-20T01:17:52.050Z,78.20
2018-02-20T01:20:18.736Z,79.30
2018-02-20T01:22:44.799Z,79.20
2018-02-20T01:25:10.741Z,79.30
2018-02-20T01:27:36.723Z,79.50
2018-02-20T01:30:02.664Z,79.60
2018-02-20T01:32:28.761Z,79.30
2018-02-20T01:34:54.717Z,79.20
2018-02-20T01:37:20.687Z,78.90
2018-02-20T01:39:46.743Z,79.10
2018-02-20T01:42:12.668Z,79.70
2018-02-20T01:44:38.603Z,80.00
2018-02-20T01:47:04.523Z,80.30
2018-02-20T01:49:30.491Z,80.20
2018-02-20T01:51:56.441Z,80.30
2018-02-20T01:54:22.378Z,80.80
2018-02-20T01:56:48.448Z,80.30
2018-02-20T01:59:14.399Z,80.90
2018-02-20T02:01:40.360Z,81.50
2018-02-20T02:04:07.051Z,82.20
2018-02-20T02:06:33.024Z,82.20
2018-02-20T02:08:59.696Z,82.30
2018-02-20T02:11:25.624Z,82.30
2018-02-20T02:13:51.697Z,82.20
2018-02-20T02:16:17.644Z,82.20
2018-02-20T02:18:43.611Z,82.60
2018-02-20T02:21:09.548Z,82.60
2018-02-20T02:23:35.513Z,82.70
2018-02-20T02:26:01.476Z,83.10
2018-02-20T02:28:27.416Z,83.30
2018-02-20T02:30:53.492Z,83.50
2018-02-20T02:33:19.564Z,83.70
2018-02-20T02:35:45.524Z,83.80
2018-02-20T02:38:11.461Z,83.80
2018-02-20T02:40:37.424Z,83.80
2018-02-20T02:43:03.374Z,83.70
2018-02-20T02:45:30.208Z,83.50
2018-02-20T02:47:56.168Z,83.50
2018-02-20T02:50:22.120Z,83.70
2018-02-20T02:52:48.108Z,84.30
2018-02-20T02:55:14.033Z,84.70
2018-02-20T02:57:40.035Z,85.00
2018-02-20T03:00:06.728Z,85.70
2018-02-20T03:02:32.804Z,85.10
2018-02-20T03:04:58.748Z,86.00
2018-02-20T03:07:24.707Z,86.30
2018-02-20T03:09:50.681Z,86.50
2018-02-20T03:12:16.659Z,86.50
2018-02-20T03:14:42.630Z,86.40
2018-02-20T03:17:08.576Z,86.20
2018-02-20T03:19:34.655Z,86.40
2018-02-20T03:22:00.581Z,86.10
2018-02-20T03:24:26.531Z,86.00
2018-02-20T03:26:52.477Z,86.20
2018-02-20T03:29:18.403Z,85.50
2018-02-20T03:31:44.527Z,85.40
2018-02-20T03:34:10.469Z,85.30
2018-02-20T03:36:36.561Z,85.30
2018-02-20T03:39:02.496Z,85.00
2018-02-20T03:41:28.479Z,84.80
2018-02-20T03:43:54.415Z,85.60
2018-02-20T03:46:20.363Z,85.20
2018-02-20T03:48:46.344Z,85.20
2018-02-20T03:51:12.275Z,85.00
2018-02-20T03:53:38.351Z,85.30
2018-02-20T03:56:04.284Z,85.60
2018-02-20T03:58:30.991Z,85.70
2018-02-20T04:00:56.942Z,85.70
2018-02-20T04:03:22.924Z,86.10
2018-02-20T04:05:48.879Z,85.80
2018-02-20T04:08:15.698Z,85.20
2018-02-20T04:10:41.636Z,85.20
2018-02-20T04:13:07.623Z,84.70
2018-02-20T04:15:33.571Z,84.40
2018-02-20T04:17:59.524Z,84.10
2018-02-20T04:20:26.263Z,83.70
2018-02-20T04:22:52.973Z,83.90
2018-02-20T04:25:18.981Z,83.90
2018-02-20T04:27:44.907Z,84.00
2018-02-20T04:30:10.880Z,83.70
2018-02-20T04:32:36.939Z,84.20
2018-02-20T04:35:02.884Z,83.80
2018-02-20T04:37:28.865Z,83.90
2018-02-20T04:39:54.792Z,83.50
2018-02-20T04:42:20.855Z,83.00
2018-02-20T04:44:46.788Z,83.70
2018-02-20T04:47:13.511Z,83.10
2018-02-20T04:49:39.483Z,83.10
2018-02-20T04:52:05.429Z,83.40
2018-02-20T04:54:31.389Z,82.60
2018-02-20T04:56:57.331Z,82.60
2018-02-20T04:59:23.417Z,82.00
2018-02-20T05:01:49.357Z,81.80
2018-02-20T05:04:16.071Z,81.40
2018-02-20T05:06:42.021Z,81.40
2018-02-20T05:09:07.972Z,81.10
2018-02-20T05:11:33.936Z,81.00
2018-02-20T05:13:59.896Z,80.50
2018-02-20T05:16:26.733Z,80.30
2018-02-20T05:18:52.704Z,80.30
2018-02-20T05:21:18.683Z,80.10
2018-02-20T05:23:45.356Z,79.70
2018-02-20T05:26:11.312Z,79.70
2018-02-20T05:28:37.256Z,79.40
2018-02-20T05:31:04.025Z,79.10
2018-02-20T05:33:30.104Z,79.10
2018-02-20T05:35:56.057Z,79.00
2018-02-20T05:38:22.759Z,76.90
2018-02-20T05:40:48.685Z,76.90
2018-02-20T05:43:14.647Z,77.60
2018-02-20T05:45:40.575Z,78.10
2018-02-20T05:48:06.687Z,78.60
2018-02-20T05:50:33.359Z,78.40
2018-02-20T05:52:59.305Z,78.40
2018-02-20T05:55:25.299Z,78.70
2018-02-20T05:57:51.269Z,79.00
2018-02-20T06:00:17.238Z,78.60
2018-02-20T06:02:43.186Z,78.90
2018-02-20T06:05:09.175Z,79.20
2018-02-20T06:07:35.132Z,79.40
2018-02-20T06:10:01.098Z,79.20
2018-02-20T06:12:27.777Z,78.70
2018-02-20T06:14:53.728Z,78.70
2018-02-20T06:17:19.728Z,78.40
2018-02-20T06:19:45.668Z,78.00
2018-02-20T06:22:11.760Z,78.00
2018-02-20T06:24:37.708Z,77.80
2018-02-20T06:27:03.700Z,77.00
2018-02-20T06:29:29.636Z,77.60
2018-02-20T06:31:55.753Z,77.50
2018-02-20T06:34:21.716Z,77.30
2018-02-20T06:36:47.803Z,76.40
2018-02-20T06:39:13.748Z,76.80
2018-02-20T06:41:39.701Z,77.10
2018-02-20T06:44:06.415Z,77.80
2018-02-20T06:46:32.352Z,77.80
2018-02-20T06:48:58.337Z,77.20
2018-02-20T06:51:25.205Z,77.30
2018-02-20T06:53:51.276Z,77.20
2018-02-20T06:56:17.212Z,76.90
2018-02-20T06:58:43.156Z,76.20
2018-02-20T07:01:09.128Z,76.70
2018-02-20T07:03:35.816Z,77.00
2018-02-20T07:06:01.793Z,77.10
2018-02-20T07:08:27.744Z,76.90
2018-02-20T07:10:53.840Z,76.60
2018-02-20T07:13:19.817Z,76.80
2018-02-20T07:15:45.774Z,77.00
2018-02-20T07:18:12.456Z,76.90
2018-02-20T07:20:38.404Z,76.90
2018-02-20T07:23:04.379Z,77.10
2018-02-20T07:25:30.327Z,77.20
2018-02-20T07:27:56.412Z,77.30
2018-02-20T07:30:22.359Z,77.50
2018-02-20T07:32:48.469Z,76.40
2018-02-20T07:35:14.413Z,75.70
2018-02-20T07:37:40.385Z,76.40
2018-02-20T07:40:07.092Z,76.20
2018-02-20T07:42:33.184Z,76.20
2018-02-20T07:44:59.141Z,76.40
2018-02-20T07:47:25.071Z,76.90
2018-02-20T07:49:51.040Z,76.90
2018-02-20T07:52:16.984Z,76.90
2018-02-20T07:54:42.920Z,76.60
2018-02-20T07:57:08.892Z,77.10
2018-02-20T07:59:35.581Z,77.50
2018-02-20T08:02:01.663Z,77.50
2018-02-20T08:04:27.624Z,77.90
2018-02-20T08:06:53.611Z,78.20
2018-02-20T08:09:19.548Z,78.20
2018-02-20T08:11:45.472Z,78.40
2018-02-20T08:14:11.461Z,78.30
2018-02-20T08:16:38.134Z,77.80
2018-02-20T08:19:04.196Z,77.70
2018-02-20T08:21:30.128Z,78.10
2018-02-20T08:23:56.093Z,78.00
2018-02-20T08:26:22.030Z,77.70
2018-02-20T08:28:48.072Z,77.60
2018-02-20T08:31:14.137Z,77.10
2018-02-20T08:33:40.821Z,77.90
2018-02-20T08:36:06.920Z,78.60
2018-02-20T08:38:32.881Z,78.20
2018-02-20T08:40:58.844Z,78.40
2018-02-20T08:43:24.779Z,78.50
2018-02-20T08:45:50.751Z,78.10
2018-02-20T08:48:16.693Z,78.40
2018-02-20T08:50:43.527Z,78.60
2018-02-20T08:53:09.468Z,78.60
2018-02-20T08:55:36.189Z,80.70
2018-02-20T08:58:02.135Z,80.80
2018-02-20T09:00:28.829Z,81.90
2018-02-20T09:02:54.801Z,81.90
2018-02-20T09:05:20.739Z,82.00
2018-02-20T09:07:46.812Z,82.80
2018-02-20T09:10:12.739Z,83.50
2018-02-20T09:12:38.708Z,83.20
2018-02-20T09:15:04.656Z,83.20
2018-02-20T09:17:30.616Z,82.30
2018-02-20T09:19:57.306Z,82.00
2018-02-20T09:22:23.407Z,81.90
2018-02-20T09:24:49.354Z,82.30
2018-02-20T09:27:15.285Z,82.40
2018-02-20T09:29:41.259Z,81.40
2018-02-20T09:32:08.100Z,81.10
2018-02-20T09:34:34.084Z,81.10
2018-02-20T09:37:00.030Z,80.80
2018-02-20T09:39:26.901Z,81.30
2018-02-20T09:41:52.831Z,81.20
2018-02-20T09:44:18.796Z,82.20
2018-02-20T09:46:44.763Z,82.30
2018-02-20T09:49:10.693Z,82.80
2018-02-20T09:51:37.404Z,83.00
2018-02-20T09:54:03.336Z,83.00
2018-02-20T09:56:30.155Z,81.90
2018-02-20T09:58:56.091Z,81.90
2018-02-20T10:01:22.802Z,81.20
2018-02-20T10:03:48.729Z,81.20
2018-02-20T10:06:14.701Z,80.90
2018-02-20T10:08:40.637Z,80.90
2018-02-20T10:11:06.572Z,80.50
2018-02-20T10:13:32.666Z,81.20
2018-02-20T10:15:58.612Z,80.00
2018-02-20T10:18:24.568Z,79.20
2018-02-20T10:20:50.525Z,77.30
2018-02-20T10:23:16.510Z,77.10
2018-02-20T10:25:42.445Z,77.30
2018-02-20T10:28:08.393Z,76.90
2018-02-20T10:30:34.464Z,76.90
2018-02-20T10:33:00.531Z,76.50
2018-02-20T10:35:27.233Z,76.90
2018-02-20T10:37:53.186Z,76.90
2018-02-20T10:40:19.859Z,76.90
2018-02-20T10:42:45.823Z,77.00
2018-02-20T10:45:11.763Z,77.00
2018-02-20T10:47:38.594Z,77.30
2018-02-20T10:50:04.564Z,76.60
2018-02-20T10:52:30.518Z,75.40
2018-02-20T10:54:56.492Z,76.50
2018-02-20T10:57:22.428Z,76.90
2018-02-20T10:59:48.400Z,76.40
2018-02-20T11:02:14.355Z,75.90
2018-02-20T11:04:40.448Z,75.30
2018-02-20T11:07:06.398Z,76.30
2018-02-20T11:09:32.375Z,76.20
2018-02-20T11:11:58.365Z,74.10
2018-02-20T11:14:24.332Z,74.00
2018-02-20T11:16:51.896Z,73.30
2018-02-20T11:19:16.463Z,72.30
2018-02-20T11:21:42.420Z,72.90
2018-02-20T11:24:09.113Z,73.70
2018-02-20T11:26:35.109Z,73.60
2018-02-20T11:29:01.049Z,73.20
2018-02-20T11:31:27.211Z,73.80
2018-02-20T11:33:53.140Z,73.40
2018-02-20T11:36:19.080Z,73.00
2018-02-20T11:38:45.233Z,71.60
2018-02-20T11:41:11.163Z,71.80
2018-02-20T11:43:37.116Z,72.40
2018-02-20T11:46:03.052Z,74.20
2018-02-20T11:48:29.024Z,73.20
2018-02-20T11:50:54.956Z,74.20
2018-02-20T11:53:21.070Z,73.20
2018-02-20T11:55:47.027Z,73.30
2018-02-20T11:58:12.961Z,73.90
2018-02-20T12:00:39.670Z,75.10
2018-02-20T12:03:05.608Z,75.10
2018-02-20T12:05:31.594Z,73.80
2018-02-20T12:07:57.535Z,75.40
2018-02-20T12:10:23.645Z,76.50
2018-02-20T12:12:49.604Z,75.60
2018-02-20T12:15:15.578Z,74.40
2018-02-20T12:17:42.300Z,76.30
2018-02-20T12:20:09.016Z,76.60
2018-02-20T12:22:35.006Z,76.60
2018-02-20T12:25:00.947Z,76.80
2018-02-20T12:27:27.041Z,76.40
2018-02-20T12:29:53.004Z,76.90
2018-02-20T12:32:18.984Z,76.90
2018-02-20T12:34:44.940Z,77.60
2018-02-20T12:37:10.935Z,78.90
2018-02-20T12:39:37.025Z,79.10
2018-02-20T12:42:02.977Z,79.40
2018-02-20T12:44:28.996Z,79.40
2018-02-20T12:46:54.952Z,79.20
2018-02-20T12:49:20.921Z,79.80
2018-02-20T12:51:46.872Z,79.80
2018-02-20T12:54:12.855Z,80.20
2018-02-20T12:56:38.821Z,80.40
2018-02-20T12:59:04.954Z,80.20
2018-02-20T13:01:30.892Z,81.00
2018-02-20T13:03:56.844Z,81.00
2018-02-20T13:06:22.822Z,80.90
2018-02-20T13:08:48.779Z,80.50
2018-02-20T13:11:14.807Z,79.70
2018-02-20T13:13:41.496Z,79.80
2018-02-20T13:16:07.437Z,79.90
2018-02-20T13:18:33.456Z,80.30
2018-02-20T13:20:59.414Z,80.20
2018-02-20T13:23:25.394Z,80.70
2018-02-20T13:25:51.355Z,80.90
2018-02-20T13:28:18.068Z,80.50
2018-02-20T13:30:44.027Z,80.60
2018-02-20T13:33:10.301Z,80.50
2018-02-20T13:35:36.244Z,81.00
2018-02-20T13:38:02.184Z,80.00
2018-02-20T13:40:28.163Z,79.60
2018-02-20T13:42:54.105Z,80.30
2018-02-20T13:45:20.109Z,79.70
2018-02-20T13:47:46.060Z,80.00
2018-02-20T13:50:12.185Z,80.60
2018-02-20T13:52:38.151Z,80.80
2018-02-20T13:55:04.096Z,80.70
2018-02-20T13:57:30.064Z,80.90
2018-02-20T13:59:56.759Z,80.30
2018-02-20T14:02:22.748Z,80.20
2018-02-20T14:04:48.705Z,79.60
2018-02-20T14:07:14.743Z,79.40
2018-02-20T14:09:40.699Z,78.20
2018-02-20T14:12:07.412Z,78.40
2018-02-20T14:14:33.360Z,78.40
2018-02-20T14:17:00.109Z,77.40
2018-02-20T14:19:26.070Z,77.40
2018-02-20T14:21:52.011Z,75.40
2018-02-20T14:24:18.022Z,74.90
2018-02-20T14:26:43.970Z,75.50
2018-02-20T14:29:09.961Z,76.10
2018-02-20T14:31:36.081Z,75.30
2018-02-20T14:34:02.064Z,74.70
2018-02-20T14:36:28.007Z,74.90
2018-02-20T14:38:54.128Z,75.60
2018-02-20T14:41:20.076Z,73.80
2018-02-20T14:43:46.048Z,74.40
2018-02-20T14:46:11.993Z,72.50
2018-02-20T14:48:37.980Z,72.60
2018-02-20T14:51:04.675Z,71.50
2018-02-20T14:53:30.757Z,71.50
2018-02-20T14:55:57.459Z,70.30
2018-02-20T14:58:23.408Z,70.40
2018-02-20T15:00:49.488Z,71.20
2018-02-20T15:03:15.462Z,71.70
2018-02-20T15:05:42.199Z,69.80
2018-02-20T15:08:08.132Z,69.70
2018-02-20T15:10:34.138Z,68.30
2018-02-20T15:13:00.828Z,70.80
2018-02-20T15:15:26.937Z,70.80
2018-02-20T15:17:53.631Z,70.40
2018-02-20T15:20:20.393Z,71.20
2018-02-20T15:22:47.079Z,69.40
2018-02-20T15:25:13.033Z,69.50
2018-02-20T15:27:39.135Z,69.80
2018-02-20T15:30:05.106Z,69.40
2018-02-20T15:32:31.076Z,69.00
2018-02-20T15:34:57.016Z,68.50
2018-02-20T15:37:22.973Z,67.20
2018-02-20T15:39:49.129Z,68.60
2018-02-20T15:42:15.109Z,68.40
2018-02-20T15:44:41.173Z,69.10
2018-02-20T15:47:07.120Z,69.60
2018-02-20T15:49:33.118Z,69.20
2018-02-20T15:51:59.049Z,68.90
2018-02-20T15:54:25.060Z,69.90
2018-02-20T15:56:51.009Z,70.00
2018-02-20T15:59:16.975Z,69.50
2018-02-20T16:01:43.713Z,69.50
2018-02-20T16:04:10.400Z,69.90
2018-02-20T16:06:36.509Z,69.90
2018-02-20T16:09:03.209Z,69.70
2018-02-20T16:11:29.931Z,70.60
2018-02-20T16:13:55.891Z,70.60
2018-02-20T16:16:21.906Z,70.60
2018-02-20T16:18:47.842Z,70.70
2018-02-20T16:21:13.848Z,71.20
2018-02-20T16:23:39.829Z,72.50
2018-02-20T16:26:05.763Z,72.40
2018-02-20T16:28:31.747Z,72.80
2018-02-20T16:30:57.737Z,73.10
2018-02-20T16:33:23.996Z,72.80
2018-02-20T16:35:49.944Z,72.90
2018-02-20T16:38:15.896Z,73.70
2018-02-20T16:40:42.593Z,72.50
2018-02-20T16:43:08.528Z,72.50
2018-02-20T16:45:34.489Z,73.20
2018-02-20T16:48:00.452Z,72.40
2018-02-20T16:50:26.553Z,72.40
2018-02-20T16:52:52.498Z,71.80
2018-02-20T16:55:18.449Z,72.00
2018-02-20T16:57:44.421Z,72.10
2018-02-20T17:00:10.372Z,72.10
2018-02-20T17:02:36.357Z,71.40
2018-02-20T17:05:02.292Z,71.40
2018-02-20T17:07:28.248Z,71.50
2018-02-20T17:09:54.341Z,71.30
2018-02-20T17:12:20.284Z,72.10
2018-02-20T17:14:46.320Z,72.30
2018-02-20T17:17:12.314Z,71.80
2018-02-20T17:19:38.264Z,72.80
2018-02-20T17:22:04.244Z,72.70
2018-02-20T17:24:30.196Z,72.90
2018-02-20T17:26:56.159Z,73.00
2018-02-20T17:29:22.900Z,73.00
2018-02-20T17:31:49.753Z,73.10
2018-02-20T17:34:15.773Z,73.10
2018-02-20T17:36:41.729Z,72.70
2018-02-20T17:39:07.831Z,72.10
2018-02-20T17:41:33.730Z,72.20
2018-02-20T17:44:00.419Z,71.40
2018-02-20T17:46:26.414Z,71.40
2018-02-20T17:48:52.399Z,70.10
2018-02-20T17:51:18.380Z,70.10
2018-02-20T17:53:44.330Z,70.50
2018-02-20T17:56:10.469Z,70.00
2018-02-20T17:58:36.402Z,69.50
2018-02-20T18:01:03.137Z,68.20
2018-02-20T18:03:29.138Z,68.20
2018-02-20T18:05:55.080Z,69.00
2018-02-20T18:08:21.077Z,69.30
2018-02-20T18:10:47.036Z,69.80
2018-02-20T18:13:23.825Z,70.00
2018-02-20T18:15:58.469Z,70.00
2018-02-20T18:18:36.893Z,70.30
2018-02-20T18:21:13.762Z,70.90
2018-02-20T18:23:40.594Z,71.20
2018-02-20T18:26:10.221Z,71.30
2018-02-20T18:28:36.880Z,71.50
2018-02-20T18:31:03.397Z,71.50
2018-02-20T18:33:29.351Z,72.20
2018-02-20T18:35:56.310Z,71.70
2018-02-20T18:38:23.013Z,73.00
2018-02-20T18:40:51.420Z,73.00
2018-02-20T18:43:18.065Z,73.00
2018-02-20T18:45:44.068Z,72.80
2018-02-20T18:48:11.030Z,73.40
2018-02-20T18:50:37.032Z,74.00
2018-02-20T18:53:06.444Z,74.10
2018-02-20T18:55:33.387Z,74.20
2018-02-20T18:58:09.131Z,74.30
2018-02-20T19:00:35.303Z,74.50
2018-02-20T19:03:01.320Z,74.80
2018-02-20T19:05:27.304Z,75.20
2018-02-20T19:07:53.275Z,75.20
2018-02-20T19:10:19.229Z,75.10
2018-02-20T19:12:45.219Z,75.20
2018-02-20T19:15:11.180Z,75.40
2018-02-20T19:17:37.157Z,74.60
2018-02-20T19:20:03.997Z,73.90
2018-02-20T19:22:30.711Z,74.10
2018-02-20T19:24:56.677Z,74.10
2018-02-20T19:27:22.631Z,73.80
2018-02-20T19:29:48.632Z,73.80
2018-02-20T19:32:14.755Z,73.80
2018-02-20T19:34:40.921Z,74.10
2018-02-20T19:37:06.896Z,73.60
2018-02-20T19:39:32.873Z,73.40
2018-02-20T19:41:58.870Z,73.10
2018-02-20T19:44:24.838Z,73.60
2018-02-20T19:46:51.576Z,73.70
2018-02-20T19:49:18.290Z,73.40
2018-02-20T19:51:44.441Z,73.40
2018-02-20T19:54:11.210Z,72.50
2018-02-20T19:56:37.175Z,72.50
2018-02-20T19:59:03.151Z,72.60
2018-02-20T20:01:29.122Z,73.00
2018-02-20T20:03:55.127Z,73.00
2018-02-20T20:06:21.113Z,74.10
2018-02-20T20:08:47.078Z,73.70
2018-02-20T20:11:13.168Z,73.50
2018-02-20T20:13:39.130Z,72.80
2018-02-20T20:16:05.139Z,73.30
2018-02-20T20:18:31.129Z,72.70
2018-02-20T20:20:57.153Z,72.30
2018-02-20T20:23:23.112Z,72.30
2018-02-20T20:25:49.139Z,72.80
2018-02-20T20:28:15.139Z,73.00
2018-02-20T20:30:41.097Z,73.30
2018-02-20T20:33:07.257Z,72.90
2018-02-20T20:35:33.218Z,72.90
2018-02-20T20:37:59.205Z,72.80
2018-02-20T20:40:25.183Z,72.80
2018-02-20T20:42:51.299Z,72.50
2018-02-20T20:45:17.261Z,72.60
2018-02-20T20:47:44.022Z,72.90
2018-02-20T20:50:10.009Z,72.90
2018-02-20T20:52:35.987Z,72.50
2018-02-20T20:55:01.985Z,72.30
2018-02-20T20:57:28.002Z,71.80
2018-02-20T20:59:54.131Z,71.70
2018-02-20T21:02:20.101Z,72.10
2018-02-20T21:04:46.116Z,72.50
2018-02-20T21:07:12.094Z,71.80
2018-02-20T21:09:38.066Z,72.00
2018-02-20T21:12:04.046Z,72.40
2018-02-20T21:14:30.153Z,72.10
2018-02-20T21:16:56.893Z,72.50
2018-02-20T21:19:23.618Z,73.50
2018-02-20T21:21:49.626Z,73.40
2018-02-20T21:24:15.593Z,73.80
2018-02-20T21:26:42.289Z,74.80
2018-02-20T21:29:08.299Z,74.90
2018-02-20T21:31:34.582Z,75.10
2018-02-20T21:34:00.580Z,75.60
2018-02-20T21:36:26.562Z,76.00
2018-02-20T21:38:52.584Z,76.20
2018-02-20T21:41:18.545Z,76.20
2018-02-20T21:43:44.532Z,76.20
2018-02-20T21:46:10.471Z,76.10
2018-02-20T21:48:36.573Z,76.00
2018-02-20T21:51:02.583Z,75.70
2018-02-20T21:53:28.588Z,75.70
2018-02-20T21:55:55.284Z,75.70
2018-02-20T21:58:21.310Z,75.70
2018-02-20T22:00:47.296Z,75.70
2018-02-20T22:03:13.296Z,75.90
2018-02-20T22:05:40.009Z,76.10
2018-02-20T22:08:05.968Z,76.10
2018-02-20T22:10:32.067Z,76.80
2018-02-20T22:12:58.768Z,77.20
2018-02-20T22:15:24.747Z,77.20
2018-02-20T22:17:50.705Z,77.10
2018-02-20T22:20:16.833Z,77.10
2018-02-20T22:22:42.787Z,77.00
2018-02-20T22:25:08.792Z,77.10
2018-02-20T22:27:34.748Z,77.00
2018-02-20T22:30:01.494Z,77.10
2018-02-20T22:32:28.208Z,78.10
2018-02-20T22:34:54.149Z,77.30
2018-02-20T22:37:20.868Z,77.60
2018-02-20T22:39:46.981Z,77.60
2018-02-20T22:42:13.066Z,77.80
2018-02-20T22:44:39.033Z,77.60
2018-02-20T22:47:05.040Z,77.80
2018-02-20T22:49:30.984Z,78.40
2018-02-20T22:51:56.993Z,78.20
2018-02-20T22:54:22.923Z,78.60
2018-02-20T22:56:48.863Z,79.10
2018-02-20T22:59:14.942Z,79.10
2018-02-20T23:01:40.868Z,79.30
2018-02-20T23:04:06.840Z,78.90
2018-02-20T23:06:33.528Z,78.30
2018-02-20T23:08:59.629Z,78.30
2018-02-20T23:11:25.583Z,78.20
2018-02-20T23:13:51.548Z,78.00
2018-02-20T23:16:18.255Z,77.60
2018-02-20T23:18:44.211Z,77.60
2018-02-20T23:21:10.945Z,77.40
2018-02-20T23:23:37.627Z,77.80
2018-02-20T23:26:03.758Z,77.80
2018-02-20T23:28:29.718Z,77.80
2018-02-20T23:30:55.656Z,77.70
2018-02-20T23:33:21.894Z,77.90
2018-02-20T23:35:47.872Z,78.10
2018-02-20T23:38:13.855Z,78.00
2018-02-20T23:40:39.807Z,78.40
2018-02-20T23:43:05.765Z,78.20
2018-02-20T23:45:31.730Z,78.00
2018-02-20T23:47:57.835Z,78.20
2018-02-20T23:50:23.780Z,78.10
2018-02-20T23:52:49.757Z,78.20
2018-02-20T23:55:15.689Z,78.10
2018-02-20T23:57:41.696Z,78.10
